createdAt,value
2017-10-18T00:02:02.572Z,20.03
2017-10-18T00:04:33.219Z,22.63
2017-10-18T00:07:04.644Z,10.60
2017-10-18T00:09:38.173Z,19.83
2017-10-18T00:12:09.436Z,25.07
2017-10-18T00:14:40.142Z,16.83
2017-10-18T00:17:11.039Z,16.83
2017-10-18T00:19:42.023Z,22.00
2017-10-18T00:22:14.964Z,18.70
2017-10-18T00:24:46.456Z,11.27
2017-10-18T00:27:19.152Z,19.73
2017-10-18T00:29:55.639Z,17.73
2017-10-18T00:32:28.146Z,20.53
2017-10-18T00:34:59.329Z,12.57
2017-10-18T00:37:31.281Z,15.07
2017-10-18T00:40:02.372Z,16.67
2017-10-18T00:42:34.888Z,16.67
2017-10-18T00:45:05.639Z,15.40
2017-10-18T00:47:36.378Z,16.40
2017-10-18T00:50:07.762Z,18.93
2017-10-18T00:52:38.757Z,17.87
2017-10-18T00:55:09.491Z,14.30
2017-10-18T00:57:41.625Z,17.03
2017-10-18T01:00:14.960Z,22.50
2017-10-18T01:02:46.603Z,19.00
2017-10-18T01:05:18.096Z,18.40
2017-10-18T01:07:49.209Z,23.20
2017-10-18T01:10:20.016Z,10.30
2017-10-18T01:12:52.785Z,17.17
2017-10-18T01:15:23.458Z,12.20
2017-10-18T01:17:54.235Z,18.17
2017-10-18T01:20:26.401Z,14.90
2017-10-18T01:22:58.935Z,22.00
2017-10-18T01:25:29.767Z,21.57
2017-10-18T01:28:00.777Z,12.63
2017-10-18T01:30:31.747Z,14.50
2017-10-18T01:33:05.250Z,19.33
2017-10-18T01:35:35.953Z,19.37
2017-10-18T01:38:06.508Z,13.27
2017-10-18T01:40:39.225Z,17.80
2017-10-18T01:43:12.250Z,19.03
2017-10-18T01:45:43.076Z,14.47
2017-10-18T01:48:15.177Z,22.37
2017-10-18T01:50:46.701Z,24.57
2017-10-18T01:53:17.871Z,17.93
2017-10-18T01:55:49.010Z,21.20
2017-10-18T01:58:19.851Z,24.67
2017-10-18T02:00:51.703Z,19.87
2017-10-18T02:03:24.867Z,30.00
2017-10-18T02:05:55.735Z,24.83
2017-10-18T02:08:28.123Z,22.60
2017-10-18T02:11:00.788Z,20.97
2017-10-18T02:13:31.622Z,19.93
2017-10-18T02:16:02.255Z,24.13
2017-10-18T02:18:34.113Z,23.63
2017-10-18T02:21:05.797Z,26.47
2017-10-18T02:23:39.055Z,16.37
2017-10-18T02:26:09.497Z,25.67
2017-10-18T02:28:40.123Z,30.83
2017-10-18T02:31:11.265Z,19.93
2017-10-18T02:33:42.039Z,28.10
2017-10-18T02:36:13.333Z,33.23
2017-10-18T02:38:45.300Z,21.17
2017-10-18T02:41:20.659Z,17.67
2017-10-18T02:43:52.677Z,25.30
2017-10-18T02:46:23.617Z,32.83
2017-10-18T02:48:54.290Z,24.07
2017-10-18T02:51:24.867Z,18.20
2017-10-18T02:53:57.685Z,26.07
2017-10-18T02:56:28.634Z,26.83
2017-10-18T02:59:02.630Z,23.87
2017-10-18T03:01:34.775Z,24.93
2017-10-18T03:04:05.962Z,27.30
2017-10-18T03:06:36.689Z,28.27
2017-10-18T03:09:07.615Z,34.73
2017-10-18T03:11:40.485Z,22.73
2017-10-18T03:14:12.025Z,32.03
2017-10-18T03:16:42.762Z,26.53
2017-10-18T03:19:15.309Z,26.97
2017-10-18T03:21:48.060Z,30.80
2017-10-18T03:24:22.000Z,27.23
2017-10-18T03:26:52.688Z,16.57
2017-10-18T03:29:24.283Z,22.20
2017-10-18T03:31:56.788Z,24.00
2017-10-18T03:34:28.217Z,25.97
2017-10-18T03:36:59.690Z,21.30
2017-10-18T03:39:32.007Z,37.03
2017-10-18T03:42:04.580Z,19.97
2017-10-18T03:44:36.206Z,27.80
2017-10-18T03:47:07.066Z,27.10
2017-10-18T03:49:37.550Z,30.63
2017-10-18T03:52:09.117Z,22.37
2017-10-18T03:54:40.925Z,35.00
2017-10-18T03:57:11.696Z,35.33
2017-10-18T03:59:44.622Z,38.47
2017-10-18T04:02:15.449Z,33.43
2017-10-18T04:04:48.390Z,37.17
2017-10-18T04:07:19.689Z,24.63
2017-10-18T04:09:53.068Z,35.80
2017-10-18T04:12:26.860Z,35.30
2017-10-18T04:14:58.398Z,34.80
2017-10-18T04:17:29.039Z,33.13
2017-10-18T04:19:59.940Z,28.63
2017-10-18T04:22:31.328Z,25.30
2017-10-18T04:25:01.985Z,27.87
2017-10-18T04:27:32.879Z,29.50
2017-10-18T04:30:04.598Z,20.13
2017-10-18T04:32:36.586Z,31.60
2017-10-18T04:35:07.692Z,28.20
2017-10-18T04:37:38.244Z,30.50
2017-10-18T04:40:09.151Z,25.90
2017-10-18T04:42:40.460Z,29.50
2017-10-18T04:45:11.802Z,25.40
2017-10-18T04:47:43.585Z,36.87
2017-10-18T04:50:14.955Z,37.43
2017-10-18T04:52:47.150Z,28.80
2017-10-18T04:55:17.913Z,24.67
2017-10-18T04:57:48.867Z,27.20
2017-10-18T05:00:19.829Z,34.67
2017-10-18T05:02:55.999Z,48.40
2017-10-18T05:05:39.656Z,34.83
2017-10-18T05:08:12.719Z,39.10
2017-10-18T05:10:47.134Z,37.70
2017-10-18T05:13:19.837Z,35.73
2017-10-18T05:15:50.402Z,55.30
2017-10-18T05:18:23.962Z,41.13
2017-10-18T05:20:57.425Z,39.30
2017-10-18T05:23:30.802Z,32.33
2017-10-18T05:26:02.158Z,25.33
2017-10-18T05:28:34.592Z,45.80
2017-10-18T05:31:04.909Z,29.80
2017-10-18T05:33:35.528Z,28.83
2017-10-18T05:36:05.810Z,38.40
2017-10-18T05:38:38.443Z,27.80
2017-10-18T05:41:08.779Z,45.00
2017-10-18T05:43:40.568Z,42.93
2017-10-18T05:46:10.941Z,41.47
2017-10-18T05:48:41.567Z,49.33
2017-10-18T05:51:12.061Z,64.07
2017-10-18T05:53:43.889Z,67.27
2017-10-18T05:56:14.205Z,58.37
2017-10-18T05:58:45.028Z,70.47
2017-10-18T06:01:15.457Z,75.63
2017-10-18T06:03:46.300Z,92.70
2017-10-18T06:06:16.628Z,77.77
2017-10-18T06:08:47.533Z,82.10
2017-10-18T06:11:18.158Z,71.10
2017-10-18T06:13:50.283Z,132.97
2017-10-18T06:16:23.533Z,105.53
2017-10-18T06:18:54.045Z,89.80
2017-10-18T06:21:24.674Z,108.90
2017-10-18T06:23:55.691Z,118.20
2017-10-18T06:26:26.164Z,112.63
2017-10-18T06:28:56.509Z,119.63
2017-10-18T06:31:27.092Z,135.70
2017-10-18T06:33:58.184Z,99.67
2017-10-18T06:36:28.801Z,132.33
2017-10-18T06:39:00.630Z,125.90
2017-10-18T06:41:31.320Z,116.07
2017-10-18T06:44:02.606Z,108.57
2017-10-18T06:46:35.262Z,139.97
2017-10-18T06:49:07.734Z,130.23
2017-10-18T06:51:41.265Z,132.70
2017-10-18T06:54:11.856Z,140.73
2017-10-18T06:56:43.109Z,163.40
2017-10-18T06:59:15.911Z,157.50
2017-10-18T07:01:47.066Z,130.80
2017-10-18T07:04:18.722Z,120.00
2017-10-18T07:06:49.377Z,142.33
2017-10-18T07:09:19.826Z,134.50
2017-10-18T07:11:52.893Z,130.33
2017-10-18T07:14:25.602Z,106.37
2017-10-18T07:17:01.802Z,109.67
2017-10-18T07:19:32.389Z,145.60
2017-10-18T07:22:04.596Z,136.43
2017-10-18T07:24:37.316Z,115.80
2017-10-18T07:27:08.536Z,161.90
2017-10-18T07:29:39.758Z,111.67
2017-10-18T07:32:10.818Z,106.53
2017-10-18T07:34:43.059Z,99.90
2017-10-18T07:37:14.247Z,115.27
2017-10-18T07:39:45.001Z,164.93
2017-10-18T07:42:17.007Z,156.63
2017-10-18T07:44:49.161Z,124.53
2017-10-18T07:47:20.125Z,104.80
2017-10-18T07:49:50.662Z,127.30
2017-10-18T07:52:21.029Z,130.60
2017-10-18T07:54:53.550Z,113.57
2017-10-18T07:57:24.176Z,117.40
2017-10-18T07:59:54.628Z,140.43
2017-10-18T08:02:26.776Z,124.50
2017-10-18T08:04:57.733Z,95.33
2017-10-18T08:07:28.248Z,108.97
2017-10-18T08:09:59.352Z,98.30
2017-10-18T08:12:30.149Z,98.17
2017-10-18T08:15:02.181Z,96.33
2017-10-18T08:17:32.530Z,83.40
2017-10-18T08:20:02.862Z,79.40
2017-10-18T08:22:34.385Z,72.50
2017-10-18T08:25:04.774Z,80.17
2017-10-18T08:27:35.986Z,84.63
2017-10-18T08:30:06.631Z,92.30
2017-10-18T08:32:37.722Z,94.50
2017-10-18T08:35:11.247Z,87.80
2017-10-18T08:37:46.840Z,95.50
2017-10-18T08:40:18.372Z,85.53
2017-10-18T08:42:49.210Z,100.47
2017-10-18T08:45:19.946Z,94.87
2017-10-18T08:47:50.461Z,106.27
2017-10-18T08:50:20.878Z,108.93
2017-10-18T08:52:52.545Z,104.83
2017-10-18T08:55:26.725Z,95.97
2017-10-18T08:57:58.771Z,103.23
2017-10-18T09:00:30.133Z,108.60
2017-10-18T09:03:00.707Z,99.47
2017-10-18T09:05:33.045Z,102.00
2017-10-18T09:08:05.804Z,103.70
2017-10-18T09:10:39.472Z,93.83
2017-10-18T09:13:10.822Z,96.17
2017-10-18T09:15:41.787Z,100.30
2017-10-18T09:18:12.449Z,92.00
2017-10-18T09:20:45.294Z,90.33
2017-10-18T09:23:19.024Z,85.43
2017-10-18T09:25:50.200Z,83.30
2017-10-18T09:28:20.617Z,80.93
2017-10-18T09:30:51.130Z,66.00
2017-10-18T09:33:23.244Z,66.97
2017-10-18T09:35:55.311Z,73.20
2017-10-18T09:38:25.788Z,68.17
2017-10-18T09:40:56.520Z,79.47
2017-10-18T09:43:29.015Z,83.93
2017-10-18T09:45:59.660Z,68.93
2017-10-18T09:48:34.506Z,67.30
2017-10-18T09:51:06.285Z,64.33
2017-10-18T09:53:37.576Z,61.73
2017-10-18T09:56:07.907Z,66.03
2017-10-18T09:58:38.242Z,68.40
2017-10-18T10:01:09.349Z,63.00
2017-10-18T10:03:41.481Z,71.23
2017-10-18T10:06:16.327Z,64.90
2017-10-18T10:08:48.377Z,62.73
2017-10-18T10:11:22.140Z,69.70
2017-10-18T10:13:56.093Z,70.67
2017-10-18T10:16:28.417Z,68.47
2017-10-18T10:18:59.046Z,66.17
2017-10-18T10:21:30.409Z,66.70
2017-10-18T10:24:03.705Z,62.37
2017-10-18T10:26:35.102Z,63.60
2017-10-18T10:29:09.959Z,57.27
2017-10-18T10:31:42.644Z,56.30
2017-10-18T10:34:14.844Z,65.70
2017-10-18T10:36:46.148Z,63.37
2017-10-18T10:39:17.659Z,65.90
2017-10-18T10:41:49.576Z,65.60
2017-10-18T10:44:21.130Z,68.73
2017-10-18T10:46:54.501Z,62.03
2017-10-18T10:49:26.457Z,54.77
2017-10-18T10:51:59.235Z,48.70
2017-10-18T10:54:29.899Z,57.50
2017-10-18T10:57:00.914Z,54.00
2017-10-18T10:59:34.118Z,53.70
2017-10-18T11:02:06.241Z,55.90
2017-10-18T11:04:38.929Z,58.50
2017-10-18T11:07:10.459Z,51.50
2017-10-18T11:09:40.976Z,58.27
2017-10-18T11:12:11.394Z,53.67
2017-10-18T11:14:43.312Z,52.67
2017-10-18T11:17:15.260Z,53.87
2017-10-18T11:19:46.491Z,56.67
2017-10-18T11:22:19.071Z,50.30
2017-10-18T11:24:51.851Z,53.17
2017-10-18T11:27:23.642Z,50.90
2017-10-18T11:29:54.068Z,52.20
2017-10-18T11:32:27.386Z,58.87
2017-10-18T11:34:57.997Z,51.87
2017-10-18T11:37:28.677Z,62.47
2017-10-18T11:39:59.141Z,57.80
2017-10-18T11:42:29.645Z,59.60
2017-10-18T11:45:00.727Z,52.37
2017-10-18T11:47:31.365Z,57.23
2017-10-18T11:50:02.430Z,51.80
2017-10-18T11:52:32.846Z,67.70
2017-10-18T11:55:03.944Z,57.33
2017-10-18T11:57:35.107Z,57.63
2017-10-18T12:00:06.323Z,51.70
2017-10-18T12:02:39.320Z,52.97
2017-10-18T12:05:11.910Z,50.97
2017-10-18T12:07:42.213Z,47.10
2017-10-18T12:10:13.591Z,56.00
2017-10-18T12:12:43.973Z,58.17
2017-10-18T12:15:14.457Z,50.13
2017-10-18T12:17:45.059Z,55.70
2017-10-18T12:20:19.449Z,55.77
2017-10-18T12:22:50.724Z,50.47
2017-10-18T12:25:25.515Z,53.63
2017-10-18T12:27:59.397Z,55.97
2017-10-18T12:30:34.083Z,52.60
2017-10-18T12:33:05.428Z,59.13
2017-10-18T12:35:37.119Z,52.77
2017-10-18T12:38:07.616Z,60.07
2017-10-18T12:40:40.736Z,55.30
2017-10-18T12:43:11.016Z,50.93
2017-10-18T12:45:45.174Z,53.47
2017-10-18T12:48:16.333Z,54.17
2017-10-18T12:50:50.636Z,50.40
2017-10-18T12:53:23.211Z,48.03
2017-10-18T12:55:54.461Z,52.90
2017-10-18T12:58:25.639Z,50.10
2017-10-18T13:00:57.625Z,52.63
2017-10-18T13:03:31.065Z,54.27
2017-10-18T13:06:05.669Z,60.43
2017-10-18T13:08:41.577Z,58.63
2017-10-18T13:11:20.062Z,47.70
2017-10-18T13:13:51.139Z,53.50
2017-10-18T13:16:30.266Z,64.80
2017-10-18T13:19:08.384Z,53.33
2017-10-18T13:22:10.643Z,58.10
2017-10-18T13:24:54.185Z,52.17
2017-10-18T13:27:36.392Z,64.17
2017-10-18T13:30:16.832Z,57.97
2017-10-18T13:32:48.229Z,52.07
2017-10-18T13:35:19.928Z,55.47
2017-10-18T13:37:50.195Z,54.30
2017-10-18T13:40:22.235Z,57.80
2017-10-18T13:42:56.489Z,63.30
2017-10-18T13:45:30.997Z,61.33
2017-10-18T13:48:02.124Z,55.03
2017-10-18T13:50:33.206Z,58.13
2017-10-18T13:53:05.928Z,59.33
2017-10-18T13:55:40.861Z,60.00
2017-10-18T13:58:12.046Z,61.20
2017-10-18T14:00:45.286Z,55.50
2017-10-18T14:03:16.472Z,63.70
2017-10-18T14:05:50.766Z,60.33
2017-10-18T14:08:21.082Z,57.50
2017-10-18T14:10:51.834Z,64.40
2017-10-18T14:13:22.288Z,63.50
2017-10-18T14:15:56.383Z,70.40
2017-10-18T14:18:29.732Z,78.17
2017-10-18T14:20:59.982Z,69.30
2017-10-18T14:23:31.076Z,69.43
2017-10-18T14:26:02.284Z,61.33
2017-10-18T14:28:33.754Z,62.60
2017-10-18T14:31:04.812Z,68.23
2017-10-18T14:33:35.173Z,62.90
2017-10-18T14:36:05.648Z,64.90
2017-10-18T14:38:37.221Z,68.40
2017-10-18T14:41:07.552Z,68.90
2017-10-18T14:43:37.877Z,56.57
2017-10-18T14:46:08.527Z,59.00
2017-10-18T14:48:38.997Z,60.00
2017-10-18T14:51:10.403Z,50.57
2017-10-18T14:53:41.468Z,67.80
2017-10-18T14:56:11.897Z,65.33
2017-10-18T14:58:45.348Z,61.43
2017-10-18T15:01:15.814Z,60.00
2017-10-18T15:03:46.123Z,59.27
2017-10-18T15:06:19.155Z,66.97
2017-10-18T15:08:49.417Z,62.20
2017-10-18T15:11:19.648Z,61.13
2017-10-18T15:13:51.562Z,64.47
2017-10-18T15:16:22.914Z,71.57
2017-10-18T15:18:54.151Z,63.93
2017-10-18T15:21:26.175Z,62.00
2017-10-18T15:23:57.044Z,60.67
2017-10-18T15:26:28.314Z,69.37
2017-10-18T15:28:59.400Z,69.60
2017-10-18T15:31:30.090Z,74.87
2017-10-18T15:34:00.772Z,65.63
2017-10-18T15:36:32.123Z,73.17
2017-10-18T15:39:03.953Z,72.80
2017-10-18T15:41:34.655Z,75.13
2017-10-18T15:44:13.436Z,69.93
2017-10-18T15:46:44.431Z,68.50
2017-10-18T15:49:21.420Z,80.83
2017-10-18T15:51:52.563Z,75.77
2017-10-18T15:54:23.029Z,62.40
2017-10-18T15:56:54.839Z,69.47
2017-10-18T15:59:27.125Z,80.20
2017-10-18T16:01:58.351Z,66.23
2017-10-18T16:04:29.495Z,69.63
2017-10-18T16:07:02.361Z,65.63
2017-10-18T16:09:34.381Z,69.27
2017-10-18T16:12:06.670Z,76.50
2017-10-18T16:14:40.648Z,77.33
2017-10-18T16:17:10.938Z,64.03
2017-10-18T16:19:42.359Z,69.50
2017-10-18T16:22:15.114Z,65.23
2017-10-18T16:24:45.482Z,88.60
2017-10-18T16:27:16.738Z,70.90
2017-10-18T16:29:48.209Z,73.93
2017-10-18T16:32:18.625Z,61.53
2017-10-18T16:34:52.147Z,82.17
2017-10-18T16:37:22.328Z,74.63
2017-10-18T16:39:53.266Z,58.97
2017-10-18T16:42:24.145Z,49.40
2017-10-18T16:44:54.460Z,83.43
2017-10-18T16:47:24.954Z,78.50
2017-10-18T16:49:58.671Z,76.67
2017-10-18T16:52:37.628Z,58.40
2017-10-18T16:55:08.982Z,77.27
2017-10-18T16:57:39.477Z,70.90
2017-10-18T17:00:09.943Z,86.10
2017-10-18T17:02:43.383Z,89.57
2017-10-18T17:05:14.915Z,85.30
2017-10-18T17:07:45.827Z,90.93
2017-10-18T17:10:19.005Z,79.03
2017-10-18T17:12:49.357Z,84.20
2017-10-18T17:15:20.409Z,63.87
2017-10-18T17:17:51.237Z,65.67
2017-10-18T17:20:21.845Z,65.03
2017-10-18T17:22:52.719Z,91.47
2017-10-18T17:25:23.096Z,72.73
2017-10-18T17:27:53.313Z,66.23
2017-10-18T17:30:23.823Z,66.83
2017-10-18T17:32:54.971Z,68.77
2017-10-18T17:35:26.494Z,83.03
2017-10-18T17:37:57.645Z,61.70
2017-10-18T17:40:28.593Z,86.90
2017-10-18T17:43:03.384Z,88.03
2017-10-18T17:45:33.898Z,76.33
2017-10-18T17:48:05.598Z,86.23
2017-10-18T17:50:37.320Z,99.97
2017-10-18T17:53:08.626Z,87.13
2017-10-18T17:55:40.087Z,105.17
2017-10-18T17:58:10.585Z,110.43
2017-10-18T18:00:44.722Z,78.03
2017-10-18T18:03:18.750Z,104.17
2017-10-18T18:05:52.725Z,85.50
2017-10-18T18:08:24.969Z,74.47
2017-10-18T18:10:56.998Z,76.40
2017-10-18T18:13:30.903Z,90.60
2017-10-18T18:16:03.470Z,72.20
2017-10-18T18:18:35.200Z,67.23
2017-10-18T18:21:07.764Z,61.27
2017-10-18T18:23:38.618Z,61.77
2017-10-18T18:26:12.163Z,66.00
2017-10-18T18:28:48.736Z,73.23
2017-10-18T18:31:22.443Z,56.57
2017-10-18T18:33:52.741Z,74.93
2017-10-18T18:36:26.454Z,52.80
2017-10-18T18:39:01.083Z,79.37
2017-10-18T18:41:33.899Z,60.43
2017-10-18T18:44:07.171Z,80.23
2017-10-18T18:46:40.609Z,65.17
2017-10-18T18:49:11.713Z,104.23
2017-10-18T18:51:43.363Z,77.60
2017-10-18T18:54:15.885Z,61.03
2017-10-18T18:56:48.455Z,57.63
2017-10-18T18:59:21.274Z,66.87
2017-10-18T19:01:53.085Z,55.80
2017-10-18T19:04:26.836Z,89.50
2017-10-18T19:06:57.341Z,64.00
2017-10-18T19:09:29.085Z,58.80
2017-10-18T19:12:00.288Z,81.90
2017-10-18T19:14:38.520Z,60.00
2017-10-18T19:17:12.635Z,57.53
2017-10-18T19:19:45.276Z,74.27
2017-10-18T19:22:20.425Z,80.33
2017-10-18T19:24:51.440Z,69.43
2017-10-18T19:27:22.782Z,64.10
2017-10-18T19:29:53.950Z,66.17
2017-10-18T19:32:26.223Z,42.83
2017-10-18T19:35:01.243Z,59.17
2017-10-18T19:37:32.437Z,65.00
2017-10-18T19:40:05.071Z,47.30
2017-10-18T19:42:44.250Z,48.87
2017-10-18T19:45:14.417Z,49.90
2017-10-18T19:47:46.312Z,59.70
2017-10-18T19:50:17.953Z,58.17
2017-10-18T19:52:50.626Z,55.30
2017-10-18T19:55:22.533Z,55.87
2017-10-18T19:57:57.112Z,94.27
2017-10-18T20:00:28.353Z,74.03
2017-10-18T20:03:01.056Z,68.30
2017-10-18T20:05:33.462Z,81.70
2017-10-18T20:08:04.527Z,78.10
2017-10-18T20:10:35.780Z,69.33
2017-10-18T20:13:06.238Z,72.60
2017-10-18T20:15:36.676Z,59.87
2017-10-18T20:18:14.469Z,60.10
2017-10-18T20:20:48.712Z,62.47
2017-10-18T20:23:19.787Z,89.43
2017-10-18T20:25:55.324Z,88.40
2017-10-18T20:28:26.426Z,86.80
2017-10-18T20:30:57.841Z,61.10
2017-10-18T20:33:30.205Z,72.73
2017-10-18T20:36:03.061Z,87.77
2017-10-18T20:38:34.376Z,72.73
2017-10-18T20:41:05.983Z,60.70
2017-10-18T20:43:37.264Z,91.57
2017-10-18T20:46:08.519Z,67.63
2017-10-18T20:48:41.394Z,71.63
2017-10-18T20:51:18.581Z,67.70
2017-10-18T20:53:50.203Z,89.87
2017-10-18T20:56:22.042Z,102.57
2017-10-18T20:58:52.659Z,95.97
2017-10-18T21:01:24.251Z,89.10
2017-10-18T21:03:54.700Z,104.33
2017-10-18T21:06:25.299Z,71.50
2017-10-18T21:08:57.212Z,90.83
2017-10-18T21:11:28.059Z,54.57
2017-10-18T21:13:59.063Z,43.43
2017-10-18T21:16:29.516Z,56.67
2017-10-18T21:18:59.751Z,43.73
2017-10-18T21:21:32.340Z,71.03
2017-10-18T21:24:02.750Z,38.67
2017-10-18T21:26:34.041Z,67.10
2017-10-18T21:29:05.224Z,54.10
2017-10-18T21:31:35.613Z,68.93
2017-10-18T21:34:07.533Z,39.90
2017-10-18T21:36:39.723Z,44.80
2017-10-18T21:39:13.114Z,50.73
2017-10-18T21:41:46.263Z,35.73
2017-10-18T21:44:17.045Z,63.80
2017-10-18T21:46:48.493Z,38.20
2017-10-18T21:49:19.909Z,36.57
2017-10-18T21:51:51.936Z,43.80
2017-10-18T21:54:23.425Z,37.10
2017-10-18T21:56:54.592Z,50.53
2017-10-18T21:59:24.668Z,42.30
2017-10-18T22:01:56.061Z,43.80
2017-10-18T22:04:26.187Z,48.10
2017-10-18T22:06:57.127Z,41.93
2017-10-18T22:09:29.693Z,45.80
2017-10-18T22:12:04.098Z,58.67
2017-10-18T22:14:34.420Z,49.73
2017-10-18T22:17:08.111Z,38.20
2017-10-18T22:19:39.190Z,58.73
2017-10-18T22:22:10.452Z,58.20
2017-10-18T22:24:41.260Z,51.97
2017-10-18T22:27:17.429Z,41.73
2017-10-18T22:29:49.044Z,55.90
2017-10-18T22:32:22.615Z,67.20
2017-10-18T22:34:52.705Z,51.03
2017-10-18T22:37:22.971Z,70.43
2017-10-18T22:39:56.199Z,89.93
2017-10-18T22:42:27.769Z,53.27
2017-10-18T22:44:58.168Z,59.83
2017-10-18T22:47:28.784Z,92.07
2017-10-18T22:49:58.931Z,52.30
2017-10-18T22:52:32.761Z,43.00
2017-10-18T22:55:02.902Z,60.13
2017-10-18T22:57:37.021Z,47.53
2017-10-18T23:00:07.425Z,52.80
2017-10-18T23:02:41.159Z,56.73
2017-10-18T23:05:11.685Z,45.63
2017-10-18T23:07:42.018Z,49.10
2017-10-18T23:10:13.648Z,44.33
2017-10-18T23:12:45.612Z,42.80
2017-10-18T23:15:15.982Z,36.77
2017-10-18T23:17:47.251Z,34.70
2017-10-18T23:20:17.700Z,30.00
2017-10-18T23:22:48.924Z,37.80
2017-10-18T23:25:22.408Z,51.93
2017-10-18T23:27:53.632Z,33.20
2017-10-18T23:30:24.367Z,28.17
2017-10-18T23:32:54.549Z,33.67
2017-10-18T23:35:25.044Z,37.77
2017-10-18T23:37:56.089Z,40.00
2017-10-18T23:40:26.642Z,35.60
2017-10-18T23:42:57.548Z,34.07
2017-10-18T23:45:27.977Z,32.20
2017-10-18T23:47:59.800Z,36.30
2017-10-18T23:50:31.195Z,65.63
2017-10-18T23:53:03.446Z,67.00
2017-10-18T23:55:33.951Z,37.73
2017-10-18T23:58:05.477Z,29.13
